sensor_id;sensor_type;location;lat;lon;timestamp;temperature;humidity
11122;DHT22;5615;49.304;10.576;2022-07-29T00:01:21;21.00;60.10
11122;DHT22;5615;49.304;10.576;2022-07-29T00:03:48;21.00;60.30
11122;DHT22;5615;49.304;10.576;2022-07-29T00:06:15;21.00;60.70
11122;DHT22;5615;49.304;10.576;2022-07-29T00:08:41;21.10;61.00
11122;DHT22;5615;49.304;10.576;2022-07-29T00:11:08;21.00;61.10
11122;DHT22;5615;49.304;10.576;2022-07-29T00:13:36;21.00;61.40
11122;DHT22;5615;49.304;10.576;2022-07-29T00:16:03;20.90;62.90
11122;DHT22;5615;49.304;10.576;2022-07-29T00:18:30;20.90;63.20
11122;DHT22;5615;49.304;10.576;2022-07-29T00:20:57;20.90;64.20
11122;DHT22;5615;49.304;10.576;2022-07-29T00:23:23;20.90;64.80
11122;DHT22;5615;49.304;10.576;2022-07-29T00:25:50;20.90;65.20
11122;DHT22;5615;49.304;10.576;2022-07-29T00:28:17;20.90;65.50
11122;DHT22;5615;49.304;10.576;2022-07-29T00:30:45;20.80;66.10
11122;DHT22;5615;49.304;10.576;2022-07-29T00:33:12;20.80;66.30
11122;DHT22;5615;49.304;10.576;2022-07-29T00:35:38;20.80;67.80
11122;DHT22;5615;49.304;10.576;2022-07-29T00:38:11;20.80;68.00
11122;DHT22;5615;49.304;10.576;2022-07-29T00:40:38;20.80;69.20
11122;DHT22;5615;49.304;10.576;2022-07-29T00:43:04;20.80;69.20
11122;DHT22;5615;49.304;10.576;2022-07-29T00:45:31;20.70;69.70
11122;DHT22;5615;49.304;10.576;2022-07-29T00:47:59;20.70;71.10
11122;DHT22;5615;49.304;10.576;2022-07-29T00:50:26;20.70;71.90
11122;DHT22;5615;49.304;10.576;2022-07-29T00:52:53;20.60;71.50
11122;DHT22;5615;49.304;10.576;2022-07-29T00:55:21;20.40;72.80
11122;DHT22;5615;49.304;10.576;2022-07-29T00:57:48;20.30;74.10
11122;DHT22;5615;49.304;10.576;2022-07-29T01:00:16;20.30;76.40
11122;DHT22;5615;49.304;10.576;2022-07-29T01:02:44;20.40;78.20
11122;DHT22;5615;49.304;10.576;2022-07-29T01:05:12;20.40;78.90
11122;DHT22;5615;49.304;10.576;2022-07-29T01:07:39;20.40;80.50
11122;DHT22;5615;49.304;10.576;2022-07-29T01:10:07;20.40;82.00
11122;DHT22;5615;49.304;10.576;2022-07-29T01:12:37;20.30;82.20
11122;DHT22;5615;49.304;10.576;2022-07-29T01:15:06;20.30;83.20
11122;DHT22;5615;49.304;10.576;2022-07-29T01:17:39;20.30;86.00
11122;DHT22;5615;49.304;10.576;2022-07-29T01:20:12;20.20;86.50
11122;DHT22;5615;49.304;10.576;2022-07-29T01:23:06;20.10;87.50
11122;DHT22;5615;49.304;10.576;2022-07-29T01:26:01;20.10;89.60
11122;DHT22;5615;49.304;10.576;2022-07-29T01:29:02;20.00;90.20
11122;DHT22;5615;49.304;10.576;2022-07-29T01:31:33;19.90;92.00
11122;DHT22;5615;49.304;10.576;2022-07-29T01:34:05;19.80;92.70
11122;DHT22;5615;49.304;10.576;2022-07-29T01:36:35;19.70;93.50
11122;DHT22;5615;49.304;10.576;2022-07-29T01:39:06;19.60;95.30
11122;DHT22;5615;49.304;10.576;2022-07-29T01:41:37;19.60;96.30
11122;DHT22;5615;49.304;10.576;2022-07-29T01:44:12;19.50;97.00
11122;DHT22;5615;49.304;10.576;2022-07-29T01:46:44;19.50;98.70
11122;DHT22;5615;49.304;10.576;2022-07-29T01:49:16;19.40;99.90
11122;DHT22;5615;49.304;10.576;2022-07-29T01:51:47;19.30;99.90
11122;DHT22;5615;49.304;10.576;2022-07-29T01:54:20;19.10;99.90
11122;DHT22;5615;49.304;10.576;2022-07-29T01:56:49;19.00;99.90
11122;DHT22;5615;49.304;10.576;2022-07-29T01:59:18;19.00;99.90
11122;DHT22;5615;49.304;10.576;2022-07-29T02:01:47;18.90;99.90
11122;DHT22;5615;49.304;10.576;2022-07-29T02:04:15;18.80;99.90
11122;DHT22;5615;49.304;10.576;2022-07-29T02:06:44;18.70;99.90
11122;DHT22;5615;49.304;10.576;2022-07-29T02:09:13;18.60;99.90
11122;DHT22;5615;49.304;10.576;2022-07-29T02:11:43;18.60;99.90
11122;DHT22;5615;49.304;10.576;2022-07-29T02:14:12;18.50;99.90
11122;DHT22;5615;49.304;10.576;2022-07-29T02:16:42;18.30;99.90
11122;DHT22;5615;49.304;10.576;2022-07-29T02:19:12;18.20;99.90
11122;DHT22;5615;49.304;10.576;2022-07-29T02:21:39;18.10;99.90
11122;DHT22;5615;49.304;10.576;2022-07-29T02:24:09;18.00;99.90
11122;DHT22;5615;49.304;10.576;2022-07-29T02:26:39;18.00;99.90
11122;DHT22;5615;49.304;10.576;2022-07-29T02:29:08;17.80;99.90
11122;DHT22;5615;49.304;10.576;2022-07-29T02:31:36;17.70;99.90
11122;DHT22;5615;49.304;10.576;2022-07-29T02:34:08;17.60;99.90
11122;DHT22;5615;49.304;10.576;2022-07-29T02:36:36;17.50;99.90
11122;DHT22;5615;49.304;10.576;2022-07-29T02:39:04;17.40;99.90
11122;DHT22;5615;49.304;10.576;2022-07-29T02:41:37;17.30;99.90
11122;DHT22;5615;49.304;10.576;2022-07-29T02:44:09;17.20;99.90
11122;DHT22;5615;49.304;10.576;2022-07-29T02:46:38;17.20;99.90
11122;DHT22;5615;49.304;10.576;2022-07-29T02:49:16;17.10;99.90
11122;DHT22;5615;49.304;10.576;2022-07-29T02:51:46;17.20;99.90
11122;DHT22;5615;49.304;10.576;2022-07-29T02:54:22;17.10;99.90
11122;DHT22;5615;49.304;10.576;2022-07-29T02:56:51;17.00;99.90
11122;DHT22;5615;49.304;10.576;2022-07-29T02:59:23;17.00;99.90
11122;DHT22;5615;49.304;10.576;2022-07-29T03:01:52;16.90;99.90
11122;DHT22;5615;49.304;10.576;2022-07-29T03:04:22;16.80;99.90
11122;DHT22;5615;49.304;10.576;2022-07-29T03:06:52;16.80;99.90
11122;DHT22;5615;49.304;10.576;2022-07-29T03:09:19;16.90;99.90
11122;DHT22;5615;49.304;10.576;2022-07-29T03:11:47;16.80;99.90
11122;DHT22;5615;49.304;10.576;2022-07-29T03:14:14;16.70;99.90
11122;DHT22;5615;49.304;10.576;2022-07-29T03:16:41;16.70;99.90
11122;DHT22;5615;49.304;10.576;2022-07-29T03:19:08;16.60;99.90
11122;DHT22;5615;49.304;10.576;2022-07-29T03:21:36;16.60;99.90
11122;DHT22;5615;49.304;10.576;2022-07-29T03:24:03;16.60;99.90
11122;DHT22;5615;49.304;10.576;2022-07-29T03:26:30;16.50;99.90
11122;DHT22;5615;49.304;10.576;2022-07-29T03:28:56;16.70;99.90
11122;DHT22;5615;49.304;10.576;2022-07-29T03:31:23;16.80;99.90
11122;DHT22;5615;49.304;10.576;2022-07-29T03:33:50;16.70;99.90
11122;DHT22;5615;49.304;10.576;2022-07-29T03:36:17;16.70;99.90
11122;DHT22;5615;49.304;10.576;2022-07-29T03:38:46;16.70;99.90
11122;DHT22;5615;49.304;10.576;2022-07-29T03:41:14;16.60;99.90
11122;DHT22;5615;49.304;10.576;2022-07-29T03:43:43;16.60;99.90
11122;DHT22;5615;49.304;10.576;2022-07-29T03:46:11;16.70;99.90
11122;DHT22;5615;49.304;10.576;2022-07-29T03:48:42;16.50;99.90
11122;DHT22;5615;49.304;10.576;2022-07-29T03:51:12;16.50;99.90
11122;DHT22;5615;49.304;10.576;2022-07-29T03:53:39;16.40;99.90
11122;DHT22;5615;49.304;10.576;2022-07-29T03:56:09;16.40;99.90
11122;DHT22;5615;49.304;10.576;2022-07-29T03:58:37;16.20;99.90
11122;DHT22;5615;49.304;10.576;2022-07-29T04:01:04;16.00;99.90
11122;DHT22;5615;49.304;10.576;2022-07-29T04:03:31;16.00;99.90
11122;DHT22;5615;49.304;10.576;2022-07-29T04:05:59;15.90;99.90
11122;DHT22;5615;49.304;10.576;2022-07-29T04:08:26;15.80;99.90
11122;DHT22;5615;49.304;10.576;2022-07-29T04:10:52;15.90;99.90
11122;DHT22;5615;49.304;10.576;2022-07-29T04:13:20;15.90;99.90
11122;DHT22;5615;49.304;10.576;2022-07-29T04:15:47;15.80;99.90
11122;DHT22;5615;49.304;10.576;2022-07-29T04:18:14;15.80;99.90
11122;DHT22;5615;49.304;10.576;2022-07-29T04:20:40;15.90;99.90
11122;DHT22;5615;49.304;10.576;2022-07-29T04:23:07;16.00;99.90
11122;DHT22;5615;49.304;10.576;2022-07-29T04:25:37;16.10;99.90
11122;DHT22;5615;49.304;10.576;2022-07-29T04:28:04;16.20;99.90
11122;DHT22;5615;49.304;10.576;2022-07-29T04:30:33;16.30;99.90
11122;DHT22;5615;49.304;10.576;2022-07-29T04:33:01;16.40;99.90
11122;DHT22;5615;49.304;10.576;2022-07-29T04:35:28;16.50;99.90
11122;DHT22;5615;49.304;10.576;2022-07-29T04:37:55;16.60;99.90
11122;DHT22;5615;49.304;10.576;2022-07-29T04:40:22;16.70;99.90
11122;DHT22;5615;49.304;10.576;2022-07-29T04:42:48;16.80;99.90
11122;DHT22;5615;49.304;10.576;2022-07-29T04:45:15;16.80;99.90
11122;DHT22;5615;49.304;10.576;2022-07-29T04:47:43;16.90;99.90
11122;DHT22;5615;49.304;10.576;2022-07-29T04:50:10;17.00;99.90
11122;DHT22;5615;49.304;10.576;2022-07-29T04:52:37;17.10;99.90
11122;DHT22;5615;49.304;10.576;2022-07-29T04:55:05;17.10;99.90
11122;DHT22;5615;49.304;10.576;2022-07-29T04:57:32;17.30;99.90
11122;DHT22;5615;49.304;10.576;2022-07-29T04:59:59;17.40;99.90
11122;DHT22;5615;49.304;10.576;2022-07-29T05:02:26;17.40;99.90
11122;DHT22;5615;49.304;10.576;2022-07-29T05:04:54;17.60;99.90
11122;DHT22;5615;49.304;10.576;2022-07-29T05:07:20;17.60;99.90
11122;DHT22;5615;49.304;10.576;2022-07-29T05:09:47;17.60;99.90
11122;DHT22;5615;49.304;10.576;2022-07-29T05:12:14;17.80;99.90
11122;DHT22;5615;49.304;10.576;2022-07-29T05:14:41;17.80;99.90
11122;DHT22;5615;49.304;10.576;2022-07-29T05:17:08;18.00;99.90
11122;DHT22;5615;49.304;10.576;2022-07-29T05:19:34;18.10;99.90
11122;DHT22;5615;49.304;10.576;2022-07-29T05:22:02;18.10;99.90
11122;DHT22;5615;49.304;10.576;2022-07-29T05:24:29;18.20;99.90
11122;DHT22;5615;49.304;10.576;2022-07-29T05:26:55;18.40;99.90
11122;DHT22;5615;49.304;10.576;2022-07-29T05:29:22;18.60;99.90
11122;DHT22;5615;49.304;10.576;2022-07-29T05:31:49;18.80;99.90
11122;DHT22;5615;49.304;10.576;2022-07-29T05:34:17;18.90;99.90
11122;DHT22;5615;49.304;10.576;2022-07-29T05:36:44;19.00;99.90
11122;DHT22;5615;49.304;10.576;2022-07-29T05:39:12;19.20;99.90
11122;DHT22;5615;49.304;10.576;2022-07-29T05:41:39;19.30;99.90
11122;DHT22;5615;49.304;10.576;2022-07-29T05:44:05;19.50;99.90
11122;DHT22;5615;49.304;10.576;2022-07-29T05:46:32;19.60;99.90
11122;DHT22;5615;49.304;10.576;2022-07-29T05:48:59;19.60;99.90
11122;DHT22;5615;49.304;10.576;2022-07-29T05:51:25;19.80;99.90
11122;DHT22;5615;49.304;10.576;2022-07-29T05:53:52;19.90;99.90
11122;DHT22;5615;49.304;10.576;2022-07-29T05:56:20;20.10;99.90
11122;DHT22;5615;49.304;10.576;2022-07-29T05:58:47;20.20;99.90
11122;DHT22;5615;49.304;10.576;2022-07-29T06:01:13;20.40;99.90
11122;DHT22;5615;49.304;10.576;2022-07-29T06:03:41;20.60;99.90
11122;DHT22;5615;49.304;10.576;2022-07-29T06:06:08;20.70;99.90
11122;DHT22;5615;49.304;10.576;2022-07-29T06:08:35;20.90;99.90
11122;DHT22;5615;49.304;10.576;2022-07-29T06:11:02;20.80;99.90
11122;DHT22;5615;49.304;10.576;2022-07-29T06:13:31;20.90;99.90
11122;DHT22;5615;49.304;10.576;2022-07-29T06:15:58;21.00;99.90
11122;DHT22;5615;49.304;10.576;2022-07-29T06:18:24;21.20;99.90
11122;DHT22;5615;49.304;10.576;2022-07-29T06:20:51;21.20;99.90
11122;DHT22;5615;49.304;10.576;2022-07-29T06:23:18;21.40;99.90
11122;DHT22;5615;49.304;10.576;2022-07-29T06:25:45;21.50;99.90
11122;DHT22;5615;49.304;10.576;2022-07-29T06:28:12;21.50;99.90
11122;DHT22;5615;49.304;10.576;2022-07-29T06:30:40;21.60;99.90
11122;DHT22;5615;49.304;10.576;2022-07-29T06:33:07;21.80;99.90
11122;DHT22;5615;49.304;10.576;2022-07-29T06:35:34;21.80;99.90
11122;DHT22;5615;49.304;10.576;2022-07-29T06:38:01;22.00;99.90
11122;DHT22;5615;49.304;10.576;2022-07-29T06:40:28;22.00;99.90
11122;DHT22;5615;49.304;10.576;2022-07-29T06:43:27;22.20;99.90
11122;DHT22;5615;49.304;10.576;2022-07-29T06:45:58;22.30;99.90
11122;DHT22;5615;49.304;10.576;2022-07-29T06:48:25;22.30;99.90
11122;DHT22;5615;49.304;10.576;2022-07-29T06:50:52;22.40;99.90
11122;DHT22;5615;49.304;10.576;2022-07-29T06:53:18;22.50;99.90
11122;DHT22;5615;49.304;10.576;2022-07-29T06:55:45;22.70;99.90
11122;DHT22;5615;49.304;10.576;2022-07-29T06:58:12;22.70;99.90
11122;DHT22;5615;49.304;10.576;2022-07-29T07:00:41;22.90;99.90
11122;DHT22;5615;49.304;10.576;2022-07-29T07:03:09;23.10;99.90
11122;DHT22;5615;49.304;10.576;2022-07-29T07:05:35;23.20;99.90
11122;DHT22;5615;49.304;10.576;2022-07-29T07:08:02;23.30;99.90
11122;DHT22;5615;49.304;10.576;2022-07-29T07:10:29;23.40;99.90
11122;DHT22;5615;49.304;10.576;2022-07-29T07:12:56;23.30;99.90
11122;DHT22;5615;49.304;10.576;2022-07-29T07:15:22;23.30;99.90
11122;DHT22;5615;49.304;10.576;2022-07-29T07:17:49;23.40;99.90
11122;DHT22;5615;49.304;10.576;2022-07-29T07:20:17;23.30;99.90
11122;DHT22;5615;49.304;10.576;2022-07-29T07:22:44;23.50;99.90
11122;DHT22;5615;49.304;10.576;2022-07-29T07:25:13;23.60;99.90
11122;DHT22;5615;49.304;10.576;2022-07-29T07:27:39;23.90;99.90
11122;DHT22;5615;49.304;10.576;2022-07-29T07:30:07;23.90;99.90
11122;DHT22;5615;49.304;10.576;2022-07-29T07:32:34;23.80;99.90
11122;DHT22;5615;49.304;10.576;2022-07-29T07:35:01;23.90;99.90
11122;DHT22;5615;49.304;10.576;2022-07-29T07:37:30;23.90;99.90
11122;DHT22;5615;49.304;10.576;2022-07-29T07:39:56;24.20;99.90
11122;DHT22;5615;49.304;10.576;2022-07-29T07:42:24;24.30;99.90
11122;DHT22;5615;49.304;10.576;2022-07-29T07:44:50;24.30;99.90
11122;DHT22;5615;49.304;10.576;2022-07-29T07:47:18;24.50;99.90
11122;DHT22;5615;49.304;10.576;2022-07-29T07:49:46;24.80;99.90
11122;DHT22;5615;49.304;10.576;2022-07-29T07:52:13;25.10;99.90
11122;DHT22;5615;49.304;10.576;2022-07-29T07:54:41;24.80;99.90
11122;DHT22;5615;49.304;10.576;2022-07-29T07:57:08;25.00;99.70
11122;DHT22;5615;49.304;10.576;2022-07-29T07:59:35;25.20;98.50
11122;DHT22;5615;49.304;10.576;2022-07-29T08:02:01;25.40;97.20
11122;DHT22;5615;49.304;10.576;2022-07-29T08:04:28;25.20;96.40
11122;DHT22;5615;49.304;10.576;2022-07-29T08:06:55;25.30;95.80
11122;DHT22;5615;49.304;10.576;2022-07-29T08:09:23;25.50;94.80
11122;DHT22;5615;49.304;10.576;2022-07-29T08:11:52;25.50;94.60
11122;DHT22;5615;49.304;10.576;2022-07-29T08:14:19;25.40;94.90
11122;DHT22;5615;49.304;10.576;2022-07-29T08:16:45;25.70;95.10
11122;DHT22;5615;49.304;10.576;2022-07-29T08:19:12;26.20;92.90
11122;DHT22;5615;49.304;10.576;2022-07-29T08:21:39;26.80;92.40
11122;DHT22;5615;49.304;10.576;2022-07-29T08:24:06;27.20;88.50
11122;DHT22;5615;49.304;10.576;2022-07-29T08:26:52;27.50;85.60
11122;DHT22;5615;49.304;10.576;2022-07-29T08:29:18;27.20;81.40
11122;DHT22;5615;49.304;10.576;2022-07-29T08:31:45;27.10;81.90
11122;DHT22;5615;49.304;10.576;2022-07-29T08:34:11;27.20;80.80
11122;DHT22;5615;49.304;10.576;2022-07-29T08:36:38;27.40;81.70
11122;DHT22;5615;49.304;10.576;2022-07-29T08:39:05;27.90;80.50
11122;DHT22;5615;49.304;10.576;2022-07-29T08:41:32;28.40;77.50
11122;DHT22;5615;49.304;10.576;2022-07-29T08:44:00;28.50;72.00
11122;DHT22;5615;49.304;10.576;2022-07-29T08:46:26;28.60;72.30
11122;DHT22;5615;49.304;10.576;2022-07-29T08:48:53;28.70;71.40
11122;DHT22;5615;49.304;10.576;2022-07-29T08:51:21;28.80;70.40
11122;DHT22;5615;49.304;10.576;2022-07-29T08:53:50;29.00;67.10
11122;DHT22;5615;49.304;10.576;2022-07-29T08:56:18;29.20;65.00
11122;DHT22;5615;49.304;10.576;2022-07-29T08:58:46;29.30;63.10
11122;DHT22;5615;49.304;10.576;2022-07-29T09:01:17;29.70;63.50
11122;DHT22;5615;49.304;10.576;2022-07-29T09:03:44;28.90;59.20
11122;DHT22;5615;49.304;10.576;2022-07-29T09:06:13;28.90;57.50
11122;DHT22;5615;49.304;10.576;2022-07-29T09:08:40;28.90;56.40
11122;DHT22;5615;49.304;10.576;2022-07-29T09:11:07;29.00;56.30
11122;DHT22;5615;49.304;10.576;2022-07-29T09:13:35;29.10;55.60
11122;DHT22;5615;49.304;10.576;2022-07-29T09:16:02;29.10;55.70
11122;DHT22;5615;49.304;10.576;2022-07-29T09:18:37;29.10;55.50
11122;DHT22;5615;49.304;10.576;2022-07-29T09:21:05;29.60;55.10
11122;DHT22;5615;49.304;10.576;2022-07-29T09:24:05;29.80;54.40
11122;DHT22;5615;49.304;10.576;2022-07-29T09:26:33;30.40;53.40
11122;DHT22;5615;49.304;10.576;2022-07-29T09:29:07;30.40;51.50
11122;DHT22;5615;49.304;10.576;2022-07-29T09:31:35;30.30;49.60
11122;DHT22;5615;49.304;10.576;2022-07-29T09:34:04;30.10;48.70
11122;DHT22;5615;49.304;10.576;2022-07-29T09:36:32;28.60;49.30
11122;DHT22;5615;49.304;10.576;2022-07-29T09:39:04;28.20;51.60
11122;DHT22;5615;49.304;10.576;2022-07-29T09:41:44;28.60;51.70
11122;DHT22;5615;49.304;10.576;2022-07-29T09:44:11;29.00;50.30
11122;DHT22;5615;49.304;10.576;2022-07-29T09:46:38;29.00;49.30
11122;DHT22;5615;49.304;10.576;2022-07-29T09:49:09;29.00;48.20
11122;DHT22;5615;49.304;10.576;2022-07-29T09:51:37;29.30;47.20
11122;DHT22;5615;49.304;10.576;2022-07-29T09:54:21;29.20;46.20
11122;DHT22;5615;49.304;10.576;2022-07-29T09:56:48;29.60;47.30
11122;DHT22;5615;49.304;10.576;2022-07-29T09:59:15;30.00;47.20
11122;DHT22;5615;49.304;10.576;2022-07-29T10:01:42;30.30;43.60
11122;DHT22;5615;49.304;10.576;2022-07-29T10:04:10;29.80;42.40
11122;DHT22;5615;49.304;10.576;2022-07-29T10:06:55;29.90;43.30
11122;DHT22;5615;49.304;10.576;2022-07-29T10:09:23;30.00;41.60
11122;DHT22;5615;49.304;10.576;2022-07-29T10:12:03;30.20;42.90
11122;DHT22;5615;49.304;10.576;2022-07-29T10:14:30;30.80;42.00
11122;DHT22;5615;49.304;10.576;2022-07-29T10:16:59;31.20;41.30
11122;DHT22;5615;49.304;10.576;2022-07-29T10:19:28;31.60;40.30
11122;DHT22;5615;49.304;10.576;2022-07-29T10:21:55;32.40;38.90
11122;DHT22;5615;49.304;10.576;2022-07-29T10:24:22;33.10;36.30
11122;DHT22;5615;49.304;10.576;2022-07-29T10:26:50;33.50;34.40
11122;DHT22;5615;49.304;10.576;2022-07-29T10:29:16;33.80;34.90
11122;DHT22;5615;49.304;10.576;2022-07-29T10:31:49;34.40;34.40
11122;DHT22;5615;49.304;10.576;2022-07-29T10:34:25;34.80;33.30
11122;DHT22;5615;49.304;10.576;2022-07-29T10:37:06;35.00;32.00
11122;DHT22;5615;49.304;10.576;2022-07-29T10:39:44;35.60;31.00
11122;DHT22;5615;49.304;10.576;2022-07-29T10:42:18;34.70;28.00
11122;DHT22;5615;49.304;10.576;2022-07-29T10:44:46;34.80;28.10
11122;DHT22;5615;49.304;10.576;2022-07-29T10:47:22;34.90;27.80
11122;DHT22;5615;49.304;10.576;2022-07-29T10:49:56;34.50;28.10
11122;DHT22;5615;49.304;10.576;2022-07-29T10:52:24;35.00;27.40
11122;DHT22;5615;49.304;10.576;2022-07-29T10:54:53;36.10;27.40
11122;DHT22;5615;49.304;10.576;2022-07-29T10:57:25;36.10;26.00
11122;DHT22;5615;49.304;10.576;2022-07-29T11:00:27;37.00;26.20
11122;DHT22;5615;49.304;10.576;2022-07-29T11:02:54;36.60;25.20
11122;DHT22;5615;49.304;10.576;2022-07-29T11:05:23;36.50;25.40
11122;DHT22;5615;49.304;10.576;2022-07-29T11:08:21;36.50;25.10
11122;DHT22;5615;49.304;10.576;2022-07-29T11:10:52;35.20;24.60
11122;DHT22;5615;49.304;10.576;2022-07-29T11:13:44;34.50;24.70
11122;DHT22;5615;49.304;10.576;2022-07-29T11:16:12;34.40;25.30
11122;DHT22;5615;49.304;10.576;2022-07-29T11:21:41;34.20;24.30
11122;DHT22;5615;49.304;10.576;2022-07-29T11:24:13;33.90;24.20
11122;DHT22;5615;49.304;10.576;2022-07-29T11:26:40;33.50;25.00
11122;DHT22;5615;49.304;10.576;2022-07-29T11:29:17;33.10;25.00
11122;DHT22;5615;49.304;10.576;2022-07-29T11:31:46;32.60;26.10
11122;DHT22;5615;49.304;10.576;2022-07-29T11:34:24;33.00;25.80
11122;DHT22;5615;49.304;10.576;2022-07-29T11:40:17;34.60;24.30
11122;DHT22;5615;49.304;10.576;2022-07-29T11:42:49;33.80;25.10
11122;DHT22;5615;49.304;10.576;2022-07-29T11:45:21;34.10;25.00
11122;DHT22;5615;49.304;10.576;2022-07-29T11:47:54;33.20;25.80
11122;DHT22;5615;49.304;10.576;2022-07-29T11:50:32;32.70;27.10
11122;DHT22;5615;49.304;10.576;2022-07-29T11:53:00;32.70;27.10
11122;DHT22;5615;49.304;10.576;2022-07-29T11:55:28;33.50;27.50
11122;DHT22;5615;49.304;10.576;2022-07-29T11:57:58;34.80;25.80
11122;DHT22;5615;49.304;10.576;2022-07-29T12:00:28;33.50;26.30
11122;DHT22;5615;49.304;10.576;2022-07-29T12:02:56;33.00;27.20
11122;DHT22;5615;49.304;10.576;2022-07-29T12:05:31;33.10;27.70
11122;DHT22;5615;49.304;10.576;2022-07-29T12:08:08;32.20;28.50
11122;DHT22;5615;49.304;10.576;2022-07-29T12:10:37;31.70;29.10
11122;DHT22;5615;49.304;10.576;2022-07-29T12:13:04;31.10;30.40
11122;DHT22;5615;49.304;10.576;2022-07-29T12:15:31;31.60;30.60
11122;DHT22;5615;49.304;10.576;2022-07-29T12:17:58;32.00;30.90
11122;DHT22;5615;49.304;10.576;2022-07-29T12:20:26;31.80;30.60
11122;DHT22;5615;49.304;10.576;2022-07-29T12:22:53;31.50;31.10
11122;DHT22;5615;49.304;10.576;2022-07-29T12:25:22;31.70;32.30
11122;DHT22;5615;49.304;10.576;2022-07-29T12:27:59;32.00;31.40
11122;DHT22;5615;49.304;10.576;2022-07-29T12:30:35;31.60;31.70
11122;DHT22;5615;49.304;10.576;2022-07-29T12:33:10;30.80;31.80
11122;DHT22;5615;49.304;10.576;2022-07-29T12:35:37;31.00;32.30
11122;DHT22;5615;49.304;10.576;2022-07-29T12:38:05;31.40;30.50
11122;DHT22;5615;49.304;10.576;2022-07-29T12:40:32;32.50;30.50
11122;DHT22;5615;49.304;10.576;2022-07-29T12:43:08;34.60;28.10
11122;DHT22;5615;49.304;10.576;2022-07-29T12:45:36;35.10;26.70
11122;DHT22;5615;49.304;10.576;2022-07-29T12:48:03;35.30;26.00
11122;DHT22;5615;49.304;10.576;2022-07-29T12:50:30;35.00;26.10
11122;DHT22;5615;49.304;10.576;2022-07-29T12:53:08;34.10;27.20
11122;DHT22;5615;49.304;10.576;2022-07-29T12:55:43;32.90;28.20
11122;DHT22;5615;49.304;10.576;2022-07-29T12:58:11;32.00;29.10
11122;DHT22;5615;49.304;10.576;2022-07-29T13:00:38;31.40;30.00
11122;DHT22;5615;49.304;10.576;2022-07-29T13:03:05;30.90;29.80
11122;DHT22;5615;49.304;10.576;2022-07-29T13:05:42;31.00;30.10
11122;DHT22;5615;49.304;10.576;2022-07-29T13:08:11;31.00;30.00
11122;DHT22;5615;49.304;10.576;2022-07-29T13:10:37;30.50;30.60
11122;DHT22;5615;49.304;10.576;2022-07-29T13:13:05;30.20;31.70
11122;DHT22;5615;49.304;10.576;2022-07-29T13:15:35;30.00;32.90
11122;DHT22;5615;49.304;10.576;2022-07-29T13:18:02;29.70;33.50
11122;DHT22;5615;49.304;10.576;2022-07-29T13:20:29;29.50;33.50
11122;DHT22;5615;49.304;10.576;2022-07-29T13:22:57;29.50;33.00
11122;DHT22;5615;49.304;10.576;2022-07-29T13:25:25;29.00;32.80
11122;DHT22;5615;49.304;10.576;2022-07-29T13:27:51;28.80;33.90
11122;DHT22;5615;49.304;10.576;2022-07-29T13:30:20;28.30;35.30
11122;DHT22;5615;49.304;10.576;2022-07-29T13:32:49;27.70;38.40
11122;DHT22;5615;49.304;10.576;2022-07-29T13:35:16;27.30;39.90
11122;DHT22;5615;49.304;10.576;2022-07-29T13:37:43;27.20;41.40
11122;DHT22;5615;49.304;10.576;2022-07-29T13:40:11;26.80;43.60
11122;DHT22;5615;49.304;10.576;2022-07-29T13:42:39;27.20;44.90
11122;DHT22;5615;49.304;10.576;2022-07-29T13:45:07;27.70;45.70
11122;DHT22;5615;49.304;10.576;2022-07-29T13:47:34;28.10;46.00
11122;DHT22;5615;49.304;10.576;2022-07-29T13:50:04;27.90;46.90
11122;DHT22;5615;49.304;10.576;2022-07-29T13:52:31;28.20;47.90
11122;DHT22;5615;49.304;10.576;2022-07-29T13:54:57;30.00;46.10
11122;DHT22;5615;49.304;10.576;2022-07-29T13:57:24;31.20;42.20
11122;DHT22;5615;49.304;10.576;2022-07-29T13:59:51;31.90;40.30
11122;DHT22;5615;49.304;10.576;2022-07-29T14:02:18;33.20;37.90
11122;DHT22;5615;49.304;10.576;2022-07-29T14:04:44;33.90;36.40
11122;DHT22;5615;49.304;10.576;2022-07-29T14:07:12;33.50;35.90
11122;DHT22;5615;49.304;10.576;2022-07-29T14:09:39;32.50;36.30
11122;DHT22;5615;49.304;10.576;2022-07-29T14:12:06;31.70;35.40
11122;DHT22;5615;49.304;10.576;2022-07-29T14:14:33;30.40;36.20
11122;DHT22;5615;49.304;10.576;2022-07-29T14:17:02;29.00;40.70
11122;DHT22;5615;49.304;10.576;2022-07-29T14:19:31;28.20;44.50
11122;DHT22;5615;49.304;10.576;2022-07-29T14:22:02;26.90;48.30
11122;DHT22;5615;49.304;10.576;2022-07-29T14:24:30;25.80;52.90
11122;DHT22;5615;49.304;10.576;2022-07-29T14:26:57;25.30;58.20
11122;DHT22;5615;49.304;10.576;2022-07-29T14:29:24;25.10;63.30
11122;DHT22;5615;49.304;10.576;2022-07-29T14:31:51;24.50;68.80
11122;DHT22;5615;49.304;10.576;2022-07-29T14:34:17;24.20;78.20
11122;DHT22;5615;49.304;10.576;2022-07-29T14:36:44;23.90;87.30
11122;DHT22;5615;49.304;10.576;2022-07-29T14:39:11;23.90;91.30
11122;DHT22;5615;49.304;10.576;2022-07-29T14:41:39;23.40;94.60
11122;DHT22;5615;49.304;10.576;2022-07-29T14:44:06;23.20;99.90
11122;DHT22;5615;49.304;10.576;2022-07-29T14:46:33;23.00;99.90
11122;DHT22;5615;49.304;10.576;2022-07-29T14:48:59;22.50;99.90
11122;DHT22;5615;49.304;10.576;2022-07-29T14:51:26;22.50;99.90
11122;DHT22;5615;49.304;10.576;2022-07-29T14:53:53;22.30;99.90
11122;DHT22;5615;49.304;10.576;2022-07-29T14:56:21;22.30;99.90
11122;DHT22;5615;49.304;10.576;2022-07-29T14:58:49;22.30;99.90
11122;DHT22;5615;49.304;10.576;2022-07-29T15:01:16;22.30;99.90
11122;DHT22;5615;49.304;10.576;2022-07-29T15:03:42;22.20;99.90
11122;DHT22;5615;49.304;10.576;2022-07-29T15:06:09;22.00;99.90
11122;DHT22;5615;49.304;10.576;2022-07-29T15:08:36;21.70;99.90
11122;DHT22;5615;49.304;10.576;2022-07-29T15:11:02;21.30;99.90
11122;DHT22;5615;49.304;10.576;2022-07-29T15:13:29;20.90;99.90
11122;DHT22;5615;49.304;10.576;2022-07-29T15:15:57;20.80;99.90
11122;DHT22;5615;49.304;10.576;2022-07-29T15:18:24;20.60;99.90
11122;DHT22;5615;49.304;10.576;2022-07-29T15:20:50;20.60;99.90
11122;DHT22;5615;49.304;10.576;2022-07-29T15:23:17;20.50;99.90
11122;DHT22;5615;49.304;10.576;2022-07-29T15:25:44;20.60;99.90
11122;DHT22;5615;49.304;10.576;2022-07-29T15:28:10;20.70;99.90
11122;DHT22;5615;49.304;10.576;2022-07-29T15:30:37;20.80;99.90
11122;DHT22;5615;49.304;10.576;2022-07-29T15:33:07;20.50;99.90
11122;DHT22;5615;49.304;10.576;2022-07-29T15:35:35;20.00;99.90
11122;DHT22;5615;49.304;10.576;2022-07-29T15:38:01;19.90;99.90
11122;DHT22;5615;49.304;10.576;2022-07-29T15:40:28;19.30;99.90
11122;DHT22;5615;49.304;10.576;2022-07-29T15:42:55;17.60;99.90
11122;DHT22;5615;49.304;10.576;2022-07-29T15:45:22;17.20;99.90
11122;DHT22;5615;49.304;10.576;2022-07-29T15:47:49;16.80;99.90